createdAt,value
2023-01-17T00:02:01.157Z,-0.95
2023-01-17T00:04:47.572Z,-1.05
2023-01-17T00:07:35.859Z,-1.04
2023-01-17T00:10:08.118Z,-0.93
2023-01-17T00:12:35.229Z,-0.95
2023-01-17T00:15:02.235Z,-1.07
2023-01-17T00:17:29.987Z,-1.08
2023-01-17T00:20:15.705Z,-1.10
2023-01-17T00:23:02.138Z,-1.01
2023-01-17T00:25:51.175Z,-1.05
2023-01-17T00:28:18.618Z,-1.02
2023-01-17T00:30:45.875Z,-0.98
2023-01-17T00:33:12.917Z,-0.96
2023-01-17T00:35:39.736Z,-1.06
2023-01-17T00:38:08.925Z,-1.08
2023-01-17T00:40:36.995Z,-0.98
2023-01-17T00:43:23.028Z,-0.93
2023-01-17T00:46:09.149Z,-1.08
2023-01-17T00:48:55.518Z,-1.14
2023-01-17T00:51:41.269Z,-0.98
2023-01-17T00:54:27.410Z,-0.93
2023-01-17T00:57:13.193Z,-0.98
2023-01-17T00:59:58.850Z,-1.19
2023-01-17T01:02:45.042Z,-1.21
2023-01-17T01:05:31.745Z,-1.23
2023-01-17T01:08:17.157Z,-1.11
2023-01-17T01:11:03.603Z,-1.05
2023-01-17T01:13:49.935Z,-1.13
2023-01-17T01:16:36.305Z,-1.18
2023-01-17T01:19:22.862Z,-1.16
2023-01-17T01:22:08.715Z,-1.26
2023-01-17T01:24:54.326Z,-1.18
2023-01-17T01:27:39.910Z,-1.03
2023-01-17T01:30:26.236Z,-1.05
2023-01-17T01:33:11.361Z,-1.05
2023-01-17T01:35:38.300Z,-1.20
2023-01-17T01:38:05.149Z,-1.09
2023-01-17T01:40:31.920Z,-1.17
2023-01-17T01:43:00.160Z,-1.04
2023-01-17T01:45:29.179Z,-1.10
2023-01-17T01:48:03.756Z,-1.28
2023-01-17T01:50:30.957Z,-1.10
2023-01-17T01:52:59.784Z,-1.14
2023-01-17T01:55:30.167Z,-1.15
2023-01-17T01:58:04.033Z,-1.20
2023-01-17T02:00:34.363Z,-1.29
2023-01-17T02:03:04.579Z,-1.28
2023-01-17T02:05:32.235Z,-1.15
2023-01-17T02:08:03.147Z,-1.30
2023-01-17T02:10:37.441Z,-1.17
2023-01-17T02:13:05.875Z,-1.22
2023-01-17T02:15:47.678Z,-1.17
2023-01-17T02:18:24.558Z,-1.34
2023-01-17T02:21:14.352Z,-1.26
2023-01-17T02:24:12.223Z,-1.21
2023-01-17T02:26:56.064Z,-1.34
2023-01-17T02:30:00.188Z,-1.30
2023-01-17T02:32:50.720Z,-1.28
2023-01-17T02:35:20.530Z,-1.35
2023-01-17T02:37:59.288Z,-1.36
2023-01-17T02:40:32.309Z,-1.42
2023-01-17T02:43:05.650Z,-1.16
2023-01-17T02:45:32.595Z,-1.29
2023-01-17T02:47:59.390Z,-1.24
2023-01-17T02:50:32.962Z,-1.28
2023-01-17T02:53:05.550Z,-1.30
2023-01-17T02:55:50.548Z,-1.17
2023-01-17T02:58:46.529Z,-1.13
2023-01-17T03:02:07.378Z,-1.25
2023-01-17T03:04:39.244Z,-1.31
2023-01-17T03:07:16.433Z,-1.21
2023-01-17T03:09:48.975Z,-1.17
2023-01-17T03:12:15.877Z,-1.25
2023-01-17T03:14:42.787Z,-1.21
2023-01-17T03:17:09.728Z,-1.22
2023-01-17T03:19:36.516Z,-1.24
2023-01-17T03:22:03.455Z,-1.26
2023-01-17T03:24:30.202Z,-1.26
2023-01-17T03:26:57.066Z,-1.19
2023-01-17T03:29:23.745Z,-1.18
2023-01-17T03:31:53.273Z,-1.22
2023-01-17T03:34:20.140Z,-1.17
2023-01-17T03:36:48.576Z,-1.33
2023-01-17T03:39:15.481Z,-1.21
2023-01-17T03:41:42.262Z,-1.16
2023-01-17T03:44:09.163Z,-1.15
2023-01-17T03:46:36.834Z,-1.04
2023-01-17T03:49:03.725Z,-1.13
2023-01-17T03:51:30.459Z,-1.13
2023-01-17T03:53:57.660Z,-1.11
2023-01-17T03:56:24.672Z,-1.13
2023-01-17T03:58:51.820Z,-1.20
2023-01-17T04:01:19.165Z,-1.16
2023-01-17T04:03:46.059Z,-1.10
2023-01-17T04:06:12.904Z,-1.21
2023-01-17T04:08:39.728Z,-1.18
2023-01-17T04:11:06.654Z,-1.06
2023-01-17T04:13:33.646Z,-1.22
2023-01-17T04:16:00.638Z,-1.18
2023-01-17T04:18:27.783Z,-1.28
2023-01-17T04:20:54.473Z,-1.28
2023-01-17T04:23:21.256Z,-1.26
2023-01-17T04:25:48.048Z,-1.19
2023-01-17T04:28:14.911Z,-1.15
2023-01-17T04:30:41.844Z,-1.16
2023-01-17T04:33:08.741Z,-1.17
2023-01-17T04:35:36.056Z,-1.21
2023-01-17T04:38:03.551Z,-1.26
2023-01-17T04:40:30.764Z,-1.25
2023-01-17T04:42:58.213Z,-1.29
2023-01-17T04:45:25.123Z,-1.29
2023-01-17T04:47:52.032Z,-1.32
2023-01-17T04:50:18.916Z,-1.32
2023-01-17T04:52:45.786Z,-1.27
2023-01-17T04:55:12.669Z,-1.29
2023-01-17T04:57:39.621Z,-1.23
2023-01-17T05:00:07.082Z,-1.24
2023-01-17T05:02:33.926Z,-1.21
2023-01-17T05:05:00.769Z,-1.24
2023-01-17T05:07:27.607Z,-1.32
2023-01-17T05:09:54.337Z,-1.20
2023-01-17T05:12:21.303Z,-1.20
2023-01-17T05:14:48.133Z,-1.18
2023-01-17T05:17:14.905Z,-1.22
2023-01-17T05:19:41.722Z,-1.20
2023-01-17T05:22:15.122Z,-1.16
2023-01-17T05:24:43.392Z,-1.20
2023-01-17T05:27:11.089Z,-1.24
2023-01-17T05:29:38.058Z,-1.24
2023-01-17T05:32:05.482Z,-1.21
2023-01-17T05:34:33.033Z,-1.23
2023-01-17T05:36:59.968Z,-1.30
2023-01-17T05:39:27.017Z,-1.30
2023-01-17T05:41:53.752Z,-1.30
2023-01-17T05:44:20.915Z,-1.37
2023-01-17T05:46:47.810Z,-1.38
2023-01-17T05:49:14.900Z,-1.40
2023-01-17T05:51:41.803Z,-1.32
2023-01-17T05:54:08.648Z,-1.29
2023-01-17T05:56:35.634Z,-1.39
2023-01-17T05:59:02.675Z,-1.34
2023-01-17T06:01:29.573Z,-1.38
2023-01-17T06:03:56.310Z,-1.36
2023-01-17T06:06:23.312Z,-1.41
2023-01-17T06:08:50.329Z,-1.32
2023-01-17T06:11:18.597Z,-1.45
2023-01-17T06:13:45.748Z,-1.33
2023-01-17T06:16:12.661Z,-1.37
2023-01-17T06:18:39.702Z,-1.37
2023-01-17T06:21:06.734Z,-1.40
2023-01-17T06:23:33.584Z,-1.52
2023-01-17T06:26:03.773Z,-1.43
2023-01-17T06:28:31.226Z,-1.37
2023-01-17T06:30:59.930Z,-1.42
2023-01-17T06:33:27.145Z,-1.35
2023-01-17T06:35:54.694Z,-1.43
2023-01-17T06:38:21.995Z,-1.33
2023-01-17T06:40:49.116Z,-1.33
2023-01-17T06:43:16.230Z,-1.26
2023-01-17T06:45:43.111Z,-1.25
2023-01-17T06:48:10.081Z,-1.29
2023-01-17T06:50:37.065Z,-1.34
2023-01-17T06:53:06.193Z,-1.36
2023-01-17T06:55:34.219Z,-1.36
2023-01-17T06:58:02.888Z,-1.40
2023-01-17T07:00:31.603Z,-1.40
2023-01-17T07:02:58.626Z,-1.43
2023-01-17T07:05:25.570Z,-1.42
2023-01-17T07:07:53.714Z,-1.39
2023-01-17T07:10:21.467Z,-1.39
2023-01-17T07:12:48.394Z,-1.43
2023-01-17T07:15:15.449Z,-1.44
2023-01-17T07:17:42.427Z,-1.39
2023-01-17T07:20:09.842Z,-1.42
2023-01-17T07:22:37.909Z,-1.45
2023-01-17T07:25:05.558Z,-1.38
2023-01-17T07:27:33.661Z,-1.35
2023-01-17T07:30:00.694Z,-1.38
2023-01-17T07:32:28.107Z,-1.37
2023-01-17T07:34:57.655Z,-1.39
2023-01-17T07:37:26.431Z,-1.39
2023-01-17T07:39:54.612Z,-1.41
2023-01-17T07:42:23.957Z,-1.36
2023-01-17T07:44:51.208Z,-1.31
2023-01-17T07:47:18.154Z,-1.29
2023-01-17T07:49:44.955Z,-1.33
2023-01-17T07:52:12.169Z,-1.28
2023-01-17T07:54:38.988Z,-1.26
2023-01-17T07:57:06.090Z,-1.31
2023-01-17T07:59:34.552Z,-1.35
2023-01-17T08:02:01.707Z,-1.41
2023-01-17T08:04:34.768Z,-1.42
2023-01-17T08:07:02.022Z,-1.43
2023-01-17T08:09:28.810Z,-1.49
2023-01-17T08:11:55.731Z,-1.52
2023-01-17T08:14:22.502Z,-1.51
2023-01-17T08:16:49.476Z,-1.49
2023-01-17T08:19:17.221Z,-1.51
2023-01-17T08:21:44.132Z,-1.50
2023-01-17T08:24:14.823Z,-1.50
2023-01-17T08:26:41.766Z,-1.42
2023-01-17T08:29:09.459Z,-1.40
2023-01-17T08:31:36.852Z,-1.42
2023-01-17T08:34:03.900Z,-1.34
2023-01-17T08:36:31.374Z,-1.29
2023-01-17T08:38:58.427Z,-1.22
2023-01-17T08:41:27.602Z,-1.24
2023-01-17T08:43:54.488Z,-1.24
2023-01-17T08:46:21.494Z,-1.19
2023-01-17T08:48:48.358Z,-1.19
2023-01-17T08:51:15.393Z,-1.15
2023-01-17T08:53:42.504Z,-1.16
2023-01-17T08:56:09.693Z,-1.18
2023-01-17T08:58:36.577Z,-1.19
2023-01-17T09:01:05.430Z,-1.18
2023-01-17T09:03:33.346Z,-1.14
2023-01-17T09:06:02.333Z,-1.10
2023-01-17T09:08:29.092Z,-1.12
2023-01-17T09:10:56.278Z,-1.07
2023-01-17T09:13:23.182Z,-1.06
2023-01-17T09:15:50.292Z,-1.06
2023-01-17T09:18:17.168Z,-1.00
2023-01-17T09:20:44.015Z,-0.91
2023-01-17T09:23:10.801Z,-0.91
2023-01-17T09:25:39.922Z,-0.87
2023-01-17T09:28:06.901Z,-0.88
2023-01-17T09:30:33.694Z,-0.85
2023-01-17T09:33:00.519Z,-0.87
2023-01-17T09:35:27.455Z,-0.77
2023-01-17T09:37:56.367Z,-0.72
2023-01-17T09:40:25.058Z,-0.73
2023-01-17T09:42:54.439Z,-0.78
2023-01-17T09:45:21.539Z,-0.72
2023-01-17T09:47:52.841Z,-0.59
2023-01-17T09:50:31.615Z,-0.62
2023-01-17T09:53:20.879Z,-0.48
2023-01-17T09:55:59.546Z,-0.44
2023-01-17T09:58:32.660Z,-0.36
2023-01-17T10:01:14.785Z,-0.18
2023-01-17T10:03:44.681Z,-0.12
2023-01-17T10:06:15.969Z,-0.01
2023-01-17T10:08:42.820Z,0.09
2023-01-17T10:11:30.958Z,0.25
2023-01-17T10:14:12.892Z,0.50
2023-01-17T10:17:02.243Z,0.70
2023-01-17T10:19:50.811Z,0.75
2023-01-17T10:22:49.492Z,0.69
2023-01-17T10:25:34.884Z,0.72
2023-01-17T10:28:17.393Z,0.73
2023-01-17T10:30:55.723Z,0.72
2023-01-17T10:33:27.516Z,0.92
2023-01-17T10:35:57.017Z,1.24
2023-01-17T10:38:32.775Z,1.08
2023-01-17T10:41:04.703Z,0.97
2023-01-17T10:43:53.087Z,0.75
2023-01-17T10:46:31.101Z,0.73
2023-01-17T10:48:58.321Z,0.64
2023-01-17T10:51:34.083Z,0.56
2023-01-17T10:54:29.926Z,0.53
2023-01-17T10:56:58.208Z,0.50
2023-01-17T10:59:30.255Z,0.46
2023-01-17T11:01:58.542Z,0.41
2023-01-17T11:04:38.397Z,0.33
2023-01-17T11:07:13.214Z,0.37
2023-01-17T11:09:42.862Z,0.28
2023-01-17T11:12:40.426Z,0.25
2023-01-17T11:15:10.230Z,0.15
2023-01-17T11:17:53.145Z,0.18
2023-01-17T11:20:32.792Z,0.10
2023-01-17T11:23:18.995Z,0.04
2023-01-17T11:25:51.413Z,0.00
2023-01-17T11:28:22.752Z,-0.01
2023-01-17T11:30:59.575Z,0.04
2023-01-17T11:33:55.718Z,0.07
2023-01-17T11:36:32.986Z,0.15
2023-01-17T11:38:59.831Z,0.25
2023-01-17T11:41:28.301Z,0.34
2023-01-17T11:43:57.353Z,0.46
2023-01-17T11:46:25.088Z,0.53
2023-01-17T11:48:59.803Z,0.63
2023-01-17T11:51:26.600Z,0.71
2023-01-17T11:53:55.988Z,0.79
2023-01-17T11:56:33.532Z,0.90
2023-01-17T11:59:24.708Z,1.00
2023-01-17T12:02:16.398Z,1.07
2023-01-17T12:04:47.557Z,1.19
2023-01-17T12:07:36.156Z,1.29
2023-01-17T12:10:15.047Z,1.32
2023-01-17T12:13:23.987Z,1.40
2023-01-17T12:16:00.397Z,1.54
2023-01-17T12:18:39.136Z,1.65
2023-01-17T12:21:20.581Z,1.83
2023-01-17T12:24:27.172Z,1.89
2023-01-17T12:27:11.563Z,1.98
2023-01-17T12:30:08.233Z,1.95
2023-01-17T12:32:54.126Z,1.99
2023-01-17T12:35:41.865Z,1.97
2023-01-17T12:38:31.733Z,2.00
2023-01-17T12:41:13.429Z,2.09
2023-01-17T12:43:41.420Z,1.86
2023-01-17T12:46:29.725Z,2.61
2023-01-17T12:49:03.938Z,2.89
2023-01-17T12:51:34.775Z,2.48
2023-01-17T12:54:25.803Z,2.23
2023-01-17T12:56:53.547Z,2.06
2023-01-17T12:59:29.640Z,1.90
2023-01-17T13:01:58.585Z,2.03
2023-01-17T13:04:58.767Z,2.47
2023-01-17T13:07:55.366Z,2.27
2023-01-17T13:10:38.434Z,2.11
2023-01-17T13:13:16.839Z,2.04
2023-01-17T13:15:44.217Z,2.36
2023-01-17T13:18:22.910Z,2.07
2023-01-17T13:21:04.928Z,2.02
2023-01-17T13:23:50.108Z,1.82
2023-01-17T13:26:30.055Z,1.82
2023-01-17T13:29:20.119Z,1.74
2023-01-17T13:31:52.134Z,1.68
2023-01-17T13:34:25.027Z,1.61
2023-01-17T13:37:06.577Z,1.70
2023-01-17T13:40:19.252Z,1.57
2023-01-17T13:42:52.279Z,1.61
2023-01-17T13:45:27.207Z,1.59
2023-01-17T13:48:30.138Z,1.70
2023-01-17T13:50:59.181Z,1.56
2023-01-17T13:53:29.066Z,1.67
2023-01-17T13:56:01.659Z,1.67
2023-01-17T13:58:57.935Z,1.66
2023-01-17T14:01:25.116Z,1.61
2023-01-17T14:03:54.429Z,1.55
2023-01-17T14:06:33.288Z,1.57
2023-01-17T14:09:33.492Z,1.50
2023-01-17T14:12:09.578Z,1.51
2023-01-17T14:14:47.008Z,1.52
2023-01-17T14:17:23.017Z,1.55
2023-01-17T14:19:54.764Z,1.51
2023-01-17T14:22:21.566Z,1.50
2023-01-17T14:25:09.835Z,1.50
2023-01-17T14:27:48.423Z,1.52
2023-01-17T14:30:29.714Z,1.52
2023-01-17T14:33:02.418Z,1.50
2023-01-17T14:35:34.553Z,1.49
2023-01-17T14:38:05.723Z,1.54
2023-01-17T14:40:34.090Z,1.54
2023-01-17T14:43:04.835Z,1.56
2023-01-17T14:45:35.807Z,1.50
2023-01-17T14:48:03.554Z,1.52
2023-01-17T14:50:37.768Z,1.48
2023-01-17T14:53:13.609Z,1.50
2023-01-17T14:55:56.718Z,1.43
2023-01-17T14:58:25.427Z,1.42
2023-01-17T15:01:00.025Z,1.41
2023-01-17T15:03:27.684Z,1.39
2023-01-17T15:05:55.605Z,1.42
2023-01-17T15:08:24.860Z,1.41
2023-01-17T15:10:58.475Z,1.39
2023-01-17T15:13:43.740Z,1.38
2023-01-17T15:16:23.576Z,1.39
2023-01-17T15:18:51.293Z,1.38
2023-01-17T15:21:20.493Z,1.34
2023-01-17T15:23:50.781Z,1.35
2023-01-17T15:26:21.231Z,1.33
2023-01-17T15:28:48.154Z,1.36
2023-01-17T15:31:25.038Z,1.32
2023-01-17T15:33:56.568Z,1.30
2023-01-17T15:36:32.503Z,1.31
2023-01-17T15:39:07.784Z,1.31
2023-01-17T15:41:37.191Z,1.24
2023-01-17T15:44:05.302Z,1.21
2023-01-17T15:46:45.240Z,1.25
2023-01-17T15:49:31.204Z,1.19
2023-01-17T15:52:08.849Z,1.11
2023-01-17T15:54:41.990Z,1.25
2023-01-17T15:57:20.733Z,1.20
2023-01-17T15:59:47.715Z,1.18
2023-01-17T16:02:34.291Z,1.07
2023-01-17T16:05:22.804Z,1.09
2023-01-17T16:07:51.442Z,0.97
2023-01-17T16:10:20.349Z,0.94
2023-01-17T16:12:49.177Z,0.94
2023-01-17T16:15:18.341Z,0.94
2023-01-17T16:17:47.973Z,0.89
2023-01-17T16:20:20.398Z,0.88
2023-01-17T16:22:47.367Z,0.86
2023-01-17T16:25:17.087Z,0.86
2023-01-17T16:27:43.971Z,0.90
2023-01-17T16:30:15.195Z,0.85
2023-01-17T16:32:49.462Z,0.86
2023-01-17T16:35:27.840Z,0.85
2023-01-17T16:37:59.689Z,0.86
2023-01-17T16:40:28.950Z,0.89
2023-01-17T16:42:56.275Z,0.95
2023-01-17T16:45:25.902Z,1.00
2023-01-17T16:47:54.137Z,1.01
2023-01-17T16:50:23.469Z,1.03
2023-01-17T16:52:54.728Z,1.04
2023-01-17T16:55:25.163Z,1.10
2023-01-17T16:57:54.192Z,1.11
2023-01-17T17:00:22.749Z,1.12
2023-01-17T17:02:50.966Z,1.17
2023-01-17T17:05:18.112Z,1.15
2023-01-17T17:07:46.332Z,1.18
2023-01-17T17:10:15.185Z,1.19
2023-01-17T17:12:42.615Z,1.19
2023-01-17T17:15:10.717Z,1.20
2023-01-17T17:17:42.317Z,1.16
2023-01-17T17:20:12.540Z,1.24
2023-01-17T17:22:40.438Z,1.22
2023-01-17T17:25:07.459Z,1.26
2023-01-17T17:27:34.258Z,1.27
2023-01-17T17:30:01.003Z,1.29
2023-01-17T17:32:28.152Z,1.24
2023-01-17T17:34:54.901Z,1.22
2023-01-17T17:37:23.580Z,1.18
2023-01-17T17:39:50.397Z,1.28
2023-01-17T17:42:17.329Z,1.28
2023-01-17T17:44:44.090Z,1.31
2023-01-17T17:47:12.997Z,1.28
2023-01-17T17:49:40.188Z,1.39
2023-01-17T17:52:07.936Z,1.36
2023-01-17T17:54:35.178Z,1.44
2023-01-17T17:57:02.036Z,1.48
2023-01-17T17:59:29.882Z,1.51
2023-01-17T18:01:58.827Z,1.53
2023-01-17T18:04:26.117Z,1.47
2023-01-17T18:06:56.711Z,1.43
2023-01-17T18:09:23.611Z,1.44
2023-01-17T18:11:50.464Z,1.45
2023-01-17T18:14:20.880Z,1.43
2023-01-17T18:16:48.407Z,1.37
2023-01-17T18:19:18.209Z,1.42
2023-01-17T18:21:45.078Z,1.37
2023-01-17T18:24:13.991Z,1.33
2023-01-17T18:27:02.627Z,1.28
2023-01-17T18:29:29.690Z,1.30
2023-01-17T18:31:56.499Z,1.24
2023-01-17T18:34:27.090Z,1.25
2023-01-17T18:36:54.180Z,1.23
2023-01-17T18:39:22.955Z,1.25
2023-01-17T18:41:49.711Z,1.22
2023-01-17T18:44:17.239Z,1.18
2023-01-17T18:46:44.122Z,1.23
2023-01-17T18:49:11.847Z,1.10
2023-01-17T18:51:38.906Z,1.07
2023-01-17T18:54:07.377Z,1.05
2023-01-17T18:56:35.120Z,1.05
2023-01-17T18:59:02.263Z,1.06
2023-01-17T19:01:33.625Z,1.07
2023-01-17T19:04:02.806Z,1.11
2023-01-17T19:06:34.966Z,1.06
2023-01-17T19:09:02.778Z,1.13
2023-01-17T19:11:29.917Z,1.08
2023-01-17T19:13:56.991Z,1.12
2023-01-17T19:16:31.326Z,1.03
2023-01-17T19:19:01.991Z,0.83
2023-01-17T19:21:29.200Z,0.84
2023-01-17T19:23:56.868Z,0.75
2023-01-17T19:26:25.601Z,0.77
2023-01-17T19:28:52.995Z,0.76
2023-01-17T19:31:22.628Z,0.85
2023-01-17T19:33:50.995Z,0.77
2023-01-17T19:36:23.624Z,0.72
2023-01-17T19:39:03.563Z,0.78
2023-01-17T19:41:31.365Z,0.74
2023-01-17T19:44:08.519Z,0.74
2023-01-17T19:46:36.366Z,0.71
2023-01-17T19:49:03.941Z,0.75
2023-01-17T19:51:30.830Z,0.79
2023-01-17T19:54:01.347Z,0.76
2023-01-17T19:56:28.403Z,0.79
2023-01-17T19:58:57.196Z,0.86
2023-01-17T20:01:29.621Z,0.82
2023-01-17T20:03:58.297Z,0.89
2023-01-17T20:06:27.691Z,0.82
2023-01-17T20:08:55.247Z,0.83
2023-01-17T20:11:23.594Z,0.75
2023-01-17T20:13:55.119Z,0.79
2023-01-17T20:16:23.223Z,0.83
2023-01-17T20:18:50.163Z,0.83
2023-01-17T20:21:19.380Z,0.79
2023-01-17T20:23:47.360Z,0.81
2023-01-17T20:26:15.500Z,0.80
2023-01-17T20:28:43.934Z,0.83
2023-01-17T20:31:13.422Z,0.95
2023-01-17T20:33:41.279Z,1.00
2023-01-17T20:36:11.405Z,1.01
2023-01-17T20:38:45.024Z,1.11
2023-01-17T20:41:26.445Z,1.10
2023-01-17T20:43:55.983Z,1.13
2023-01-17T20:46:25.042Z,1.19
2023-01-17T20:48:53.905Z,1.20
2023-01-17T20:51:21.784Z,1.27
2023-01-17T20:53:56.864Z,1.35
2023-01-17T20:56:24.811Z,1.40
2023-01-17T20:58:52.497Z,1.43
2023-01-17T21:01:20.011Z,1.48
2023-01-17T21:03:48.245Z,1.60
2023-01-17T21:06:15.196Z,1.64
2023-01-17T21:08:43.870Z,1.70
2023-01-17T21:11:12.719Z,1.77
2023-01-17T21:13:39.956Z,1.79
2023-01-17T21:16:09.302Z,1.74
2023-01-17T21:18:36.410Z,1.66
2023-01-17T21:21:11.963Z,1.74
2023-01-17T21:23:40.012Z,1.87
2023-01-17T21:26:12.149Z,1.90
2023-01-17T21:28:40.787Z,1.83
2023-01-17T21:31:23.074Z,1.74
2023-01-17T21:33:54.362Z,1.74
2023-01-17T21:36:23.340Z,1.62
2023-01-17T21:38:52.560Z,1.49
2023-01-17T21:41:26.566Z,1.44
2023-01-17T21:43:58.438Z,1.43
2023-01-17T21:46:26.464Z,1.40
2023-01-17T21:48:53.687Z,1.26
2023-01-17T21:51:21.850Z,1.27
2023-01-17T21:53:48.757Z,1.31
2023-01-17T21:56:34.545Z,1.32
2023-01-17T21:59:01.405Z,1.07
2023-01-17T22:01:30.347Z,0.99
2023-01-17T22:04:03.055Z,1.14
2023-01-17T22:06:32.432Z,1.17
2023-01-17T22:08:59.279Z,1.22
2023-01-17T22:11:27.395Z,1.24
2023-01-17T22:13:54.248Z,1.14
2023-01-17T22:16:25.815Z,1.17
2023-01-17T22:18:53.018Z,1.11
2023-01-17T22:21:22.508Z,1.10
2023-01-17T22:23:52.227Z,1.16
2023-01-17T22:26:20.716Z,1.26
2023-01-17T22:28:47.470Z,1.27
2023-01-17T22:31:22.529Z,1.33
2023-01-17T22:33:56.397Z,1.41
2023-01-17T22:36:23.709Z,1.41
2023-01-17T22:38:50.852Z,1.34
2023-01-17T22:41:20.468Z,1.41
2023-01-17T22:43:49.177Z,1.48
2023-01-17T22:46:18.873Z,1.48
2023-01-17T22:48:46.186Z,1.56
2023-01-17T22:51:15.264Z,1.55
2023-01-17T22:53:44.219Z,1.47
2023-01-17T22:56:12.761Z,1.41
2023-01-17T22:58:42.342Z,1.46
2023-01-17T23:01:17.599Z,1.57
2023-01-17T23:03:45.152Z,1.65
2023-01-17T23:06:19.117Z,1.71
2023-01-17T23:08:50.679Z,1.82
2023-01-17T23:11:42.898Z,1.91
2023-01-17T23:14:21.353Z,1.91
2023-01-17T23:17:07.963Z,1.95
2023-01-17T23:19:42.450Z,1.96
2023-01-17T23:22:21.042Z,1.93
2023-01-17T23:25:26.363Z,1.95
2023-01-17T23:28:11.238Z,2.03
2023-01-17T23:30:40.270Z,2.07
2023-01-17T23:33:12.887Z,2.12
2023-01-17T23:35:42.547Z,2.18
2023-01-17T23:38:26.301Z,2.15
2023-01-17T23:41:12.524Z,2.22
2023-01-17T23:43:39.286Z,2.29
2023-01-17T23:46:11.290Z,2.27
2023-01-17T23:48:38.020Z,2.36
2023-01-17T23:51:11.025Z,2.23
2023-01-17T23:53:38.981Z,2.10
2023-01-17T23:56:11.088Z,1.89
2023-01-17T23:58:37.954Z,2.01
